sensor_id;sensor_type;location;lat;lon;timestamp;pressure;altitude;pressure_sealevel;temperature;humidity
69909;BME280;57190;47.918;8.112;2023-02-28T00:02:07;90863.44;;;-4.99;66.27
69909;BME280;57190;47.918;8.112;2023-02-28T00:04:32;90860.59;;;-4.89;65.71
69909;BME280;57190;47.918;8.112;2023-02-28T00:06:58;90868.19;;;-5.02;66.60
69909;BME280;57190;47.918;8.112;2023-02-28T00:09:24;90869.22;;;-5.12;67.08
69909;BME280;57190;47.918;8.112;2023-02-28T00:11:49;90863.06;;;-5.11;66.62
69909;BME280;57190;47.918;8.112;2023-02-28T00:14:15;90868.06;;;-5.09;66.80
69909;BME280;57190;47.918;8.112;2023-02-28T00:16:40;90863.78;;;-5.02;66.90
69909;BME280;57190;47.918;8.112;2023-02-28T00:19:06;90860.44;;;-5.11;67.99
69909;BME280;57190;47.918;8.112;2023-02-28T00:21:31;90857.59;;;-5.01;67.33
69909;BME280;57190;47.918;8.112;2023-02-28T00:23:57;90860.31;;;-4.94;66.57
69909;BME280;57190;47.918;8.112;2023-02-28T00:26:22;90864.22;;;-5.13;67.86
69909;BME280;57190;47.918;8.112;2023-02-28T00:28:48;90859.00;;;-5.13;68.00
69909;BME280;57190;47.918;8.112;2023-02-28T00:31:14;90867.81;;;-4.99;67.72
69909;BME280;57190;47.918;8.112;2023-02-28T00:33:39;90861.88;;;-5.08;67.59
69909;BME280;57190;47.918;8.112;2023-02-28T00:36:08;90858.53;;;-4.94;67.95
69909;BME280;57190;47.918;8.112;2023-02-28T00:38:35;90863.28;;;-5.21;68.59
69909;BME280;57190;47.918;8.112;2023-02-28T00:41:00;90865.91;;;-5.21;68.45
69909;BME280;57190;47.918;8.112;2023-02-28T00:43:30;90862.75;;;-5.16;68.00
69909;BME280;57190;47.918;8.112;2023-02-28T00:45:56;90873.63;;;-5.12;68.77
69909;BME280;57190;47.918;8.112;2023-02-28T00:48:21;90872.28;;;-5.08;68.54
69909;BME280;57190;47.918;8.112;2023-02-28T00:50:50;90866.13;;;-5.07;69.19
69909;BME280;57190;47.918;8.112;2023-02-28T00:53:16;90863.97;;;-5.03;68.73
69909;BME280;57190;47.918;8.112;2023-02-28T00:55:41;90872.34;;;-4.93;68.74
69909;BME280;57190;47.918;8.112;2023-02-28T00:58:07;90862.69;;;-5.08;68.46
69909;BME280;57190;47.918;8.112;2023-02-28T01:00:32;90856.69;;;-4.85;68.12
69909;BME280;57190;47.918;8.112;2023-02-28T01:02:58;90851.66;;;-5.10;68.64
69909;BME280;57190;47.918;8.112;2023-02-28T01:05:23;90862.00;;;-5.01;68.32
69909;BME280;57190;47.918;8.112;2023-02-28T01:07:49;90859.81;;;-5.13;69.00
69909;BME280;57190;47.918;8.112;2023-02-28T01:10:15;90859.75;;;-5.05;69.53
69909;BME280;57190;47.918;8.112;2023-02-28T01:12:41;90855.81;;;-5.00;68.93
69909;BME280;57190;47.918;8.112;2023-02-28T01:15:06;90864.66;;;-5.10;69.33
69909;BME280;57190;47.918;8.112;2023-02-28T01:17:32;90872.69;;;-4.96;69.17
69909;BME280;57190;47.918;8.112;2023-02-28T01:19:58;90860.38;;;-4.79;68.42
69909;BME280;57190;47.918;8.112;2023-02-28T01:22:23;90859.75;;;-5.05;68.21
69909;BME280;57190;47.918;8.112;2023-02-28T01:24:49;90861.25;;;-5.10;68.95
69909;BME280;57190;47.918;8.112;2023-02-28T01:27:15;90857.22;;;-5.13;69.33
69909;BME280;57190;47.918;8.112;2023-02-28T01:29:40;90860.91;;;-5.07;69.55
69909;BME280;57190;47.918;8.112;2023-02-28T01:32:06;90855.31;;;-4.81;68.64
69909;BME280;57190;47.918;8.112;2023-02-28T01:34:31;90868.78;;;-4.92;68.99
69909;BME280;57190;47.918;8.112;2023-02-28T01:36:57;90856.88;;;-5.10;69.07
69909;BME280;57190;47.918;8.112;2023-02-28T01:39:25;90863.44;;;-4.99;69.63
69909;BME280;57190;47.918;8.112;2023-02-28T01:41:50;90852.28;;;-5.08;69.85
69909;BME280;57190;47.918;8.112;2023-02-28T01:47:19;90863.56;;;-4.92;69.28
69909;BME280;57190;47.918;8.112;2023-02-28T01:49:45;90858.25;;;-4.99;69.29
69909;BME280;57190;47.918;8.112;2023-02-28T01:52:12;90856.22;;;-5.12;70.74
69909;BME280;57190;47.918;8.112;2023-02-28T01:54:45;90850.03;;;-5.11;70.37
69909;BME280;57190;47.918;8.112;2023-02-28T01:57:18;90846.97;;;-5.14;70.43
69909;BME280;57190;47.918;8.112;2023-02-28T01:59:57;90851.16;;;-4.90;69.73
69909;BME280;57190;47.918;8.112;2023-02-28T02:02:25;90841.13;;;-4.93;69.48
69909;BME280;57190;47.918;8.112;2023-02-28T02:05:09;90853.03;;;-4.99;70.33
69909;BME280;57190;47.918;8.112;2023-02-28T02:07:38;90850.91;;;-5.18;70.79
69909;BME280;57190;47.918;8.112;2023-02-28T02:10:21;90837.25;;;-4.97;69.78
69909;BME280;57190;47.918;8.112;2023-02-28T02:22:03;90825.22;;;-4.98;71.00
69909;BME280;57190;47.918;8.112;2023-02-28T02:24:59;90828.84;;;-4.84;70.67
69909;BME280;57190;47.918;8.112;2023-02-28T02:30:23;90825.78;;;-5.26;71.80
69909;BME280;57190;47.918;8.112;2023-02-28T02:33:17;90833.44;;;-5.33;72.64
69909;BME280;57190;47.918;8.112;2023-02-28T02:42:09;90818.72;;;-5.17;71.60
69909;BME280;57190;47.918;8.112;2023-02-28T02:46:47;90823.28;;;-5.19;72.88
69909;BME280;57190;47.918;8.112;2023-02-28T02:49:24;90819.69;;;-5.18;72.69
69909;BME280;57190;47.918;8.112;2023-02-28T02:51:53;90819.63;;;-5.10;72.59
69909;BME280;57190;47.918;8.112;2023-02-28T02:54:21;90819.53;;;-5.17;72.77
69909;BME280;57190;47.918;8.112;2023-02-28T02:56:49;90818.41;;;-4.99;71.22
69909;BME280;57190;47.918;8.112;2023-02-28T02:59:20;90818.25;;;-4.98;71.52
69909;BME280;57190;47.918;8.112;2023-02-28T03:01:51;90819.16;;;-5.14;72.43
69909;BME280;57190;47.918;8.112;2023-02-28T03:04:20;90817.34;;;-5.28;73.15
69909;BME280;57190;47.918;8.112;2023-02-28T03:06:46;90811.69;;;-5.32;73.54
69909;BME280;57190;47.918;8.112;2023-02-28T03:09:12;90816.94;;;-5.17;73.16
69909;BME280;57190;47.918;8.112;2023-02-28T03:11:39;90816.19;;;-5.26;73.80
69909;BME280;57190;47.918;8.112;2023-02-28T03:14:46;90817.84;;;-5.33;73.80
69909;BME280;57190;47.918;8.112;2023-02-28T03:17:32;90817.22;;;-5.35;74.15
69909;BME280;57190;47.918;8.112;2023-02-28T03:20:10;90812.31;;;-5.30;73.88
69909;BME280;57190;47.918;8.112;2023-02-28T03:25:54;90823.19;;;-5.26;73.95
69909;BME280;57190;47.918;8.112;2023-02-28T03:28:51;90814.91;;;-5.30;73.93
69909;BME280;57190;47.918;8.112;2023-02-28T03:31:26;90814.09;;;-5.30;74.37
69909;BME280;57190;47.918;8.112;2023-02-28T03:34:14;90819.00;;;-5.35;74.61
69909;BME280;57190;47.918;8.112;2023-02-28T03:37:14;90818.38;;;-5.38;75.01
69909;BME280;57190;47.918;8.112;2023-02-28T03:39:46;90819.41;;;-5.47;74.39
69909;BME280;57190;47.918;8.112;2023-02-28T03:42:17;90821.03;;;-5.46;74.97
69909;BME280;57190;47.918;8.112;2023-02-28T03:44:52;90811.78;;;-5.48;75.19
69909;BME280;57190;47.918;8.112;2023-02-28T03:49:53;90815.72;;;-5.29;74.46
69909;BME280;57190;47.918;8.112;2023-02-28T03:52:23;90819.75;;;-5.27;74.20
69909;BME280;57190;47.918;8.112;2023-02-28T03:54:55;90819.34;;;-5.39;74.45
69909;BME280;57190;47.918;8.112;2023-02-28T03:57:43;90821.44;;;-5.11;72.94
69909;BME280;57190;47.918;8.112;2023-02-28T04:00:40;90816.41;;;-5.12;72.82
69909;BME280;57190;47.918;8.112;2023-02-28T04:03:08;90817.72;;;-5.40;73.47
69909;BME280;57190;47.918;8.112;2023-02-28T04:05:51;90809.31;;;-5.42;74.40
69909;BME280;57190;47.918;8.112;2023-02-28T04:08:17;90820.34;;;-5.40;74.46
69909;BME280;57190;47.918;8.112;2023-02-28T04:10:46;90821.09;;;-5.31;73.98
69909;BME280;57190;47.918;8.112;2023-02-28T04:13:13;90818.31;;;-5.29;73.40
69909;BME280;57190;47.918;8.112;2023-02-28T04:15:39;90816.19;;;-5.26;74.05
69909;BME280;57190;47.918;8.112;2023-02-28T04:18:05;90820.78;;;-5.36;74.28
69909;BME280;57190;47.918;8.112;2023-02-28T04:20:31;90817.22;;;-5.35;73.86
69909;BME280;57190;47.918;8.112;2023-02-28T04:22:56;90815.59;;;-5.36;73.49
69909;BME280;57190;47.918;8.112;2023-02-28T04:25:22;90819.47;;;-5.32;73.54
69909;BME280;57190;47.918;8.112;2023-02-28T04:27:47;90814.97;;;-5.38;73.50
69909;BME280;57190;47.918;8.112;2023-02-28T04:30:13;90808.09;;;-5.31;73.32
69909;BME280;57190;47.918;8.112;2023-02-28T04:32:38;90813.50;;;-5.41;74.19
69909;BME280;57190;47.918;8.112;2023-02-28T04:35:04;90807.78;;;-5.36;74.02
69909;BME280;57190;47.918;8.112;2023-02-28T04:37:30;90808.81;;;-5.45;74.47
69909;BME280;57190;47.918;8.112;2023-02-28T04:40:01;90812.59;;;-5.48;74.37
69909;BME280;57190;47.918;8.112;2023-02-28T04:42:26;90808.44;;;-5.11;72.76
69909;BME280;57190;47.918;8.112;2023-02-28T04:44:52;90807.00;;;-5.37;74.27
69909;BME280;57190;47.918;8.112;2023-02-28T04:47:17;90803.28;;;-5.42;73.32
69909;BME280;57190;47.918;8.112;2023-02-28T04:49:43;90812.91;;;-5.43;73.77
69909;BME280;57190;47.918;8.112;2023-02-28T04:52:08;90807.75;;;-5.51;74.68
69909;BME280;57190;47.918;8.112;2023-02-28T04:54:35;90814.03;;;-5.45;74.57
69909;BME280;57190;47.918;8.112;2023-02-28T04:57:00;90815.91;;;-5.31;73.76
69909;BME280;57190;47.918;8.112;2023-02-28T04:59:27;90822.06;;;-5.32;73.65
69909;BME280;57190;47.918;8.112;2023-02-28T05:01:52;90822.59;;;-5.37;73.96
69909;BME280;57190;47.918;8.112;2023-02-28T05:04:18;90827.56;;;-5.27;73.82
69909;BME280;57190;47.918;8.112;2023-02-28T05:06:43;90825.66;;;-5.33;73.69
69909;BME280;57190;47.918;8.112;2023-02-28T05:09:09;90837.38;;;-5.37;74.00
69909;BME280;57190;47.918;8.112;2023-02-28T05:11:36;90833.97;;;-5.38;73.97
69909;BME280;57190;47.918;8.112;2023-02-28T05:14:05;90846.63;;;-5.34;74.08
69909;BME280;57190;47.918;8.112;2023-02-28T05:16:31;90847.91;;;-5.30;73.86
69909;BME280;57190;47.918;8.112;2023-02-28T05:18:57;90841.78;;;-5.38;73.53
69909;BME280;57190;47.918;8.112;2023-02-28T05:23:52;90841.13;;;-5.40;73.82
69909;BME280;57190;47.918;8.112;2023-02-28T05:26:18;90845.16;;;-5.37;73.99
69909;BME280;57190;47.918;8.112;2023-02-28T05:28:43;90848.13;;;-5.40;74.09
69909;BME280;57190;47.918;8.112;2023-02-28T05:31:12;90847.81;;;-5.45;73.62
69909;BME280;57190;47.918;8.112;2023-02-28T05:33:38;90846.84;;;-5.44;73.88
69909;BME280;57190;47.918;8.112;2023-02-28T05:36:05;90844.16;;;-5.51;74.34
69909;BME280;57190;47.918;8.112;2023-02-28T05:38:30;90845.75;;;-5.50;73.62
69909;BME280;57190;47.918;8.112;2023-02-28T05:40:56;90844.28;;;-5.53;73.81
69909;BME280;57190;47.918;8.112;2023-02-28T05:43:22;90852.22;;;-5.46;73.98
69909;BME280;57190;47.918;8.112;2023-02-28T05:45:48;90854.53;;;-5.51;74.21
69909;BME280;57190;47.918;8.112;2023-02-28T05:48:13;90851.47;;;-5.55;73.53
69909;BME280;57190;47.918;8.112;2023-02-28T05:50:39;90856.81;;;-5.56;74.22
69909;BME280;57190;47.918;8.112;2023-02-28T05:53:04;90856.72;;;-5.63;74.14
69909;BME280;57190;47.918;8.112;2023-02-28T05:55:30;90857.25;;;-5.44;73.40
69909;BME280;57190;47.918;8.112;2023-02-28T05:57:55;90853.63;;;-5.66;74.05
69909;BME280;57190;47.918;8.112;2023-02-28T06:00:22;90852.53;;;-5.72;74.24
69909;BME280;57190;47.918;8.112;2023-02-28T06:02:47;90858.81;;;-5.58;73.30
69909;BME280;57190;47.918;8.112;2023-02-28T06:05:17;90864.47;;;-5.55;73.40
69909;BME280;57190;47.918;8.112;2023-02-28T06:07:44;90861.28;;;-5.65;74.21
69909;BME280;57190;47.918;8.112;2023-02-28T06:10:12;90859.94;;;-5.61;73.61
69909;BME280;57190;47.918;8.112;2023-02-28T06:12:38;90874.88;;;-5.55;73.66
69909;BME280;57190;47.918;8.112;2023-02-28T06:15:04;90872.47;;;-5.64;73.94
69909;BME280;57190;47.918;8.112;2023-02-28T06:17:30;90869.72;;;-5.63;73.73
69909;BME280;57190;47.918;8.112;2023-02-28T06:19:55;90859.19;;;-5.70;74.44
69909;BME280;57190;47.918;8.112;2023-02-28T06:22:21;90868.56;;;-5.60;74.30
69909;BME280;57190;47.918;8.112;2023-02-28T06:24:47;90867.22;;;-5.56;74.02
69909;BME280;57190;47.918;8.112;2023-02-28T06:27:12;90870.81;;;-5.57;74.46
69909;BME280;57190;47.918;8.112;2023-02-28T06:29:38;90868.19;;;-5.57;74.79
69909;BME280;57190;47.918;8.112;2023-02-28T06:32:06;90866.16;;;-5.39;73.00
69909;BME280;57190;47.918;8.112;2023-02-28T06:34:32;90873.56;;;-5.59;74.25
69909;BME280;57190;47.918;8.112;2023-02-28T06:36:59;90874.81;;;-5.46;74.33
69909;BME280;57190;47.918;8.112;2023-02-28T06:39:30;90879.19;;;-5.15;77.24
69909;BME280;57190;47.918;8.112;2023-02-28T06:41:56;90886.66;;;-5.12;75.74
69909;BME280;57190;47.918;8.112;2023-02-28T06:44:22;90876.63;;;-5.24;73.33
69909;BME280;57190;47.918;8.112;2023-02-28T06:46:48;90878.50;;;-5.41;73.56
69909;BME280;57190;47.918;8.112;2023-02-28T06:49:14;90897.03;;;-5.35;73.73
69909;BME280;57190;47.918;8.112;2023-02-28T06:51:41;90892.34;;;-5.40;74.04
69909;BME280;57190;47.918;8.112;2023-02-28T06:54:08;90893.63;;;-5.44;73.69
69909;BME280;57190;47.918;8.112;2023-02-28T06:56:35;90892.22;;;-5.24;73.28
69909;BME280;57190;47.918;8.112;2023-02-28T06:59:00;90888.75;;;-5.39;73.45
69909;BME280;57190;47.918;8.112;2023-02-28T07:01:26;90896.31;;;-5.29;73.75
69909;BME280;57190;47.918;8.112;2023-02-28T07:03:53;90892.09;;;-5.30;73.33
69909;BME280;57190;47.918;8.112;2023-02-28T07:06:20;90897.31;;;-5.30;74.18
69909;BME280;57190;47.918;8.112;2023-02-28T07:08:48;90895.34;;;-5.28;73.58
69909;BME280;57190;47.918;8.112;2023-02-28T07:11:14;90896.31;;;-5.29;74.01
69909;BME280;57190;47.918;8.112;2023-02-28T07:13:40;90901.19;;;-5.26;73.47
69909;BME280;57190;47.918;8.112;2023-02-28T07:16:09;90902.16;;;-5.27;73.57
69909;BME280;57190;47.918;8.112;2023-02-28T07:18:35;90921.13;;;-5.18;73.20
69909;BME280;57190;47.918;8.112;2023-02-28T07:21:06;90910.25;;;-5.22;73.25
69909;BME280;57190;47.918;8.112;2023-02-28T07:23:32;90918.53;;;-5.18;73.22
69909;BME280;57190;47.918;8.112;2023-02-28T07:25:58;90910.91;;;-5.20;74.04
69909;BME280;57190;47.918;8.112;2023-02-28T07:28:24;90914.91;;;-5.09;73.74
69909;BME280;57190;47.918;8.112;2023-02-28T07:30:50;90912.81;;;-5.14;73.12
69909;BME280;57190;47.918;8.112;2023-02-28T07:33:15;90907.72;;;-5.07;73.43
69909;BME280;57190;47.918;8.112;2023-02-28T07:35:41;90903.72;;;-4.95;73.11
69909;BME280;57190;47.918;8.112;2023-02-28T07:38:06;90916.41;;;-4.92;72.69
69909;BME280;57190;47.918;8.112;2023-02-28T07:40:34;90914.66;;;-4.76;71.84
69909;BME280;57190;47.918;8.112;2023-02-28T07:43:00;90911.03;;;-4.90;72.23
69909;BME280;57190;47.918;8.112;2023-02-28T07:45:26;90920.75;;;-4.84;72.56
69909;BME280;57190;47.918;8.112;2023-02-28T07:47:51;90916.75;;;-4.95;72.75
69909;BME280;57190;47.918;8.112;2023-02-28T07:50:17;90918.03;;;-4.91;72.74
69909;BME280;57190;47.918;8.112;2023-02-28T07:52:42;90919.53;;;-4.73;72.66
69909;BME280;57190;47.918;8.112;2023-02-28T07:55:09;90919.66;;;-4.90;72.50
69909;BME280;57190;47.918;8.112;2023-02-28T07:57:35;90928.91;;;-4.87;72.56
69909;BME280;57190;47.918;8.112;2023-02-28T08:00:03;90920.38;;;-4.81;72.41
69909;BME280;57190;47.918;8.112;2023-02-28T08:02:29;90919.84;;;-4.91;72.85
69909;BME280;57190;47.918;8.112;2023-02-28T08:04:55;90922.72;;;-4.86;72.45
69909;BME280;57190;47.918;8.112;2023-02-28T08:07:20;90925.19;;;-4.69;71.67
69909;BME280;57190;47.918;8.112;2023-02-28T08:09:46;90923.91;;;-4.74;71.48
69909;BME280;57190;47.918;8.112;2023-02-28T08:12:11;90925.13;;;-4.84;72.50
69909;BME280;57190;47.918;8.112;2023-02-28T08:14:38;90926.28;;;-4.64;72.43
69909;BME280;57190;47.918;8.112;2023-02-28T08:17:04;90925.66;;;-4.66;72.21
69909;BME280;57190;47.918;8.112;2023-02-28T08:19:30;90926.44;;;-4.65;71.60
69909;BME280;57190;47.918;8.112;2023-02-28T08:21:56;90930.69;;;-4.64;71.69
69909;BME280;57190;47.918;8.112;2023-02-28T08:24:22;90934.75;;;-4.62;71.72
69909;BME280;57190;47.918;8.112;2023-02-28T08:26:48;90939.13;;;-4.62;71.54
69909;BME280;57190;47.918;8.112;2023-02-28T08:29:14;90938.41;;;-4.71;71.96
69909;BME280;57190;47.918;8.112;2023-02-28T08:31:39;90937.63;;;-4.56;70.73
69909;BME280;57190;47.918;8.112;2023-02-28T08:34:06;90940.09;;;-4.63;71.53
69909;BME280;57190;47.918;8.112;2023-02-28T08:36:32;90949.66;;;-4.55;71.52
69909;BME280;57190;47.918;8.112;2023-02-28T08:38:57;90952.19;;;-4.47;71.78
69909;BME280;57190;47.918;8.112;2023-02-28T08:41:24;90950.97;;;-4.36;70.89
69909;BME280;57190;47.918;8.112;2023-02-28T08:43:51;90948.78;;;-4.48;70.70
69909;BME280;57190;47.918;8.112;2023-02-28T08:46:16;90958.28;;;-4.55;71.48
69909;BME280;57190;47.918;8.112;2023-02-28T08:48:42;90963.41;;;-4.70;71.76
69909;BME280;57190;47.918;8.112;2023-02-28T08:51:15;90959.78;;;-4.61;71.99
69909;BME280;57190;47.918;8.112;2023-02-28T08:53:44;90959.88;;;-4.54;71.12
69909;BME280;57190;47.918;8.112;2023-02-28T08:56:12;90957.81;;;-4.59;71.62
69909;BME280;57190;47.918;8.112;2023-02-28T08:58:38;90960.88;;;-4.55;71.86
69909;BME280;57190;47.918;8.112;2023-02-28T09:01:09;90973.16;;;-4.64;71.97
69909;BME280;57190;47.918;8.112;2023-02-28T09:03:35;90969.97;;;-4.74;72.40
69909;BME280;57190;47.918;8.112;2023-02-28T09:06:01;90960.59;;;-4.60;71.96
69909;BME280;57190;47.918;8.112;2023-02-28T09:08:29;90966.94;;;-4.39;71.71
69909;BME280;57190;47.918;8.112;2023-02-28T09:10:56;90961.78;;;-4.48;71.37
69909;BME280;57190;47.918;8.112;2023-02-28T09:13:24;90980.78;;;-4.39;71.63
69909;BME280;57190;47.918;8.112;2023-02-28T09:15:50;90973.44;;;-4.35;71.34
69909;BME280;57190;47.918;8.112;2023-02-28T09:18:16;90969.44;;;-4.46;71.40
69909;BME280;57190;47.918;8.112;2023-02-28T09:20:42;90963.06;;;-4.44;71.13
69909;BME280;57190;47.918;8.112;2023-02-28T09:23:09;90976.63;;;-4.48;71.14
69909;BME280;57190;47.918;8.112;2023-02-28T09:25:35;90966.25;;;-4.33;71.28
69909;BME280;57190;47.918;8.112;2023-02-28T09:28:01;90978.63;;;-4.35;72.02
69909;BME280;57190;47.918;8.112;2023-02-28T09:30:27;90976.22;;;-4.37;71.27
69909;BME280;57190;47.918;8.112;2023-02-28T09:32:52;90974.34;;;-4.28;71.60
69909;BME280;57190;47.918;8.112;2023-02-28T09:35:23;90980.56;;;-4.14;71.07
69909;BME280;57190;47.918;8.112;2023-02-28T09:37:50;90972.22;;;-4.09;70.01
69909;BME280;57190;47.918;8.112;2023-02-28T09:40:18;90972.56;;;-4.13;69.60
69909;BME280;57190;47.918;8.112;2023-02-28T09:42:49;90969.69;;;-4.18;70.27
69909;BME280;57190;47.918;8.112;2023-02-28T09:45:32;90976.41;;;-4.23;70.15
69909;BME280;57190;47.918;8.112;2023-02-28T09:48:18;90984.69;;;-4.20;70.49
69909;BME280;57190;47.918;8.112;2023-02-28T09:50:52;90977.38;;;-4.01;69.78
69909;BME280;57190;47.918;8.112;2023-02-28T09:53:32;90977.06;;;-4.06;69.99
69909;BME280;57190;47.918;8.112;2023-02-28T09:56:11;90989.22;;;-3.99;69.58
69909;BME280;57190;47.918;8.112;2023-02-28T09:58:46;90977.53;;;-4.03;69.77
69909;BME280;57190;47.918;8.112;2023-02-28T10:03:59;90993.38;;;-3.89;69.72
69909;BME280;57190;47.918;8.112;2023-02-28T10:06:35;90992.31;;;-3.80;69.32
69909;BME280;57190;47.918;8.112;2023-02-28T10:09:08;90990.50;;;-3.80;69.52
69909;BME280;57190;47.918;8.112;2023-02-28T10:11:39;90991.31;;;-3.64;69.49
69909;BME280;57190;47.918;8.112;2023-02-28T10:14:18;90990.63;;;-3.58;69.08
69909;BME280;57190;47.918;8.112;2023-02-28T10:19:24;90996.53;;;-3.64;68.34
69909;BME280;57190;47.918;8.112;2023-02-28T10:22:22;90990.34;;;-3.63;68.66
69909;BME280;57190;47.918;8.112;2023-02-28T10:24:51;90996.56;;;-3.49;68.61
69909;BME280;57190;47.918;8.112;2023-02-28T10:27:25;91003.50;;;-3.41;68.04
69909;BME280;57190;47.918;8.112;2023-02-28T10:29:54;90993.94;;;-3.49;68.11
69909;BME280;57190;47.918;8.112;2023-02-28T10:32:24;90997.72;;;-3.52;68.57
69909;BME280;57190;47.918;8.112;2023-02-28T10:35:10;91005.19;;;-3.64;68.78
69909;BME280;57190;47.918;8.112;2023-02-28T10:37:50;91006.44;;;-3.59;69.15
69909;BME280;57190;47.918;8.112;2023-02-28T10:45:59;91011.75;;;-3.23;68.83
69909;BME280;57190;47.918;8.112;2023-02-28T10:48:33;91012.38;;;-3.21;68.09
69909;BME280;57190;47.918;8.112;2023-02-28T10:50:59;91010.22;;;-3.17;67.57
69909;BME280;57190;47.918;8.112;2023-02-28T10:53:39;91019.13;;;-3.11;68.31
69909;BME280;57190;47.918;8.112;2023-02-28T11:03:59;91025.47;;;-2.84;67.86
69909;BME280;57190;47.918;8.112;2023-02-28T11:06:33;91015.97;;;-2.92;67.63
69909;BME280;57190;47.918;8.112;2023-02-28T11:09:02;91019.44;;;-2.85;67.52
69909;BME280;57190;47.918;8.112;2023-02-28T11:11:31;91020.97;;;-2.75;66.10
69909;BME280;57190;47.918;8.112;2023-02-28T11:14:25;91024.75;;;-2.78;67.35
69909;BME280;57190;47.918;8.112;2023-02-28T11:16:52;91024.03;;;-2.72;67.18
69909;BME280;57190;47.918;8.112;2023-02-28T11:19:22;91023.03;;;-2.71;67.71
69909;BME280;57190;47.918;8.112;2023-02-28T11:21:57;91018.28;;;-2.82;67.66
69909;BME280;57190;47.918;8.112;2023-02-28T11:24:30;91028.16;;;-2.77;67.64
69909;BME280;57190;47.918;8.112;2023-02-28T11:26:57;91028.28;;;-2.86;67.18
69909;BME280;57190;47.918;8.112;2023-02-28T11:29:33;91021.75;;;-2.75;67.36
69909;BME280;57190;47.918;8.112;2023-02-28T11:32:16;91032.53;;;-2.63;66.86
69909;BME280;57190;47.918;8.112;2023-02-28T11:34:44;91027.63;;;-2.73;66.91
69909;BME280;57190;47.918;8.112;2023-02-28T11:37:20;91026.06;;;-2.52;66.56
69909;BME280;57190;47.918;8.112;2023-02-28T11:39:46;91027.72;;;-2.44;66.51
69909;BME280;57190;47.918;8.112;2023-02-28T11:53:02;91010.88;;;-2.20;65.27
69909;BME280;57190;47.918;8.112;2023-02-28T11:55:39;91009.75;;;-2.11;65.54
69909;BME280;57190;47.918;8.112;2023-02-28T11:58:25;91004.41;;;-2.02;64.44
69909;BME280;57190;47.918;8.112;2023-02-28T12:04:11;91016.91;;;-2.19;64.91
69909;BME280;57190;47.918;8.112;2023-02-28T12:12:44;91028.41;;;-1.92;66.59
69909;BME280;57190;47.918;8.112;2023-02-28T12:15:27;91021.53;;;-1.71;65.12
69909;BME280;57190;47.918;8.112;2023-02-28T12:20:54;91022.91;;;-1.76;64.10
69909;BME280;57190;47.918;8.112;2023-02-28T12:29:23;91021.75;;;-1.73;64.54
69909;BME280;57190;47.918;8.112;2023-02-28T12:32:13;91014.22;;;-1.54;63.83
69909;BME280;57190;47.918;8.112;2023-02-28T12:34:53;91011.91;;;-1.36;63.20
69909;BME280;57190;47.918;8.112;2023-02-28T12:38:04;91011.06;;;-1.43;62.64
69909;BME280;57190;47.918;8.112;2023-02-28T12:40:56;91018.84;;;-1.56;64.33
69909;BME280;57190;47.918;8.112;2023-02-28T12:43:29;91034.34;;;-1.55;62.96
69909;BME280;57190;47.918;8.112;2023-02-28T12:46:02;91031.00;;;-1.70;63.27
69909;BME280;57190;47.918;8.112;2023-02-28T12:48:53;91033.16;;;-1.52;63.38
69909;BME280;57190;47.918;8.112;2023-02-28T12:51:22;91023.81;;;-1.33;62.87
69909;BME280;57190;47.918;8.112;2023-02-28T12:56:43;91023.94;;;-1.48;63.88
69909;BME280;57190;47.918;8.112;2023-02-28T13:05:01;91014.97;;;-1.61;64.32
69909;BME280;57190;47.918;8.112;2023-02-28T13:10:16;91015.53;;;-1.37;63.55
69909;BME280;57190;47.918;8.112;2023-02-28T13:12:53;91011.56;;;-1.33;64.01
69909;BME280;57190;47.918;8.112;2023-02-28T13:15:23;91019.09;;;-1.16;63.17
69909;BME280;57190;47.918;8.112;2023-02-28T13:17:58;91013.69;;;-1.08;62.90
69909;BME280;57190;47.918;8.112;2023-02-28T13:20:32;91004.34;;;-1.24;62.78
69909;BME280;57190;47.918;8.112;2023-02-28T13:22:59;91010.09;;;-1.07;62.76
69909;BME280;57190;47.918;8.112;2023-02-28T13:28:12;91009.66;;;-1.11;61.74
69909;BME280;57190;47.918;8.112;2023-02-28T13:36:10;91017.28;;;-1.16;62.63
69909;BME280;57190;47.918;8.112;2023-02-28T13:38:53;91008.31;;;-1.00;62.91
69909;BME280;57190;47.918;8.112;2023-02-28T13:44:15;91012.03;;;-1.22;63.36
69909;BME280;57190;47.918;8.112;2023-02-28T13:52:18;91019.19;;;-1.31;62.99
69909;BME280;57190;47.918;8.112;2023-02-28T13:57:58;91026.56;;;-1.42;63.28
69909;BME280;57190;47.918;8.112;2023-02-28T14:06:23;91029.47;;;-1.30;63.05
69909;BME280;57190;47.918;8.112;2023-02-28T14:11:28;91032.75;;;-1.21;63.77
69909;BME280;57190;47.918;8.112;2023-02-28T14:13:54;91034.94;;;-1.24;62.30
69909;BME280;57190;47.918;8.112;2023-02-28T14:16:24;91041.84;;;-1.45;62.99
69909;BME280;57190;47.918;8.112;2023-02-28T14:18:57;91040.66;;;-1.43;63.54
69909;BME280;57190;47.918;8.112;2023-02-28T14:21:35;91041.41;;;-1.49;63.55
69909;BME280;57190;47.918;8.112;2023-02-28T14:30:01;91052.94;;;-1.43;64.77
69909;BME280;57190;47.918;8.112;2023-02-28T14:32:39;91040.50;;;-1.34;63.81
69909;BME280;57190;47.918;8.112;2023-02-28T14:38:07;91052.31;;;-1.45;64.57
69909;BME280;57190;47.918;8.112;2023-02-28T14:40:39;91052.38;;;-1.38;64.25
69909;BME280;57190;47.918;8.112;2023-02-28T14:43:18;91052.84;;;-1.56;64.74
69909;BME280;57190;47.918;8.112;2023-02-28T14:45:50;91055.22;;;-1.62;64.81
69909;BME280;57190;47.918;8.112;2023-02-28T14:48:17;91062.81;;;-1.67;64.95
69909;BME280;57190;47.918;8.112;2023-02-28T14:50:49;91058.47;;;-1.60;64.96
69909;BME280;57190;47.918;8.112;2023-02-28T14:53:21;91049.31;;;-1.70;64.97
69909;BME280;57190;47.918;8.112;2023-02-28T14:55:49;91053.94;;;-1.72;65.46
69909;BME280;57190;47.918;8.112;2023-02-28T14:58:26;91050.69;;;-1.75;65.11
69909;BME280;57190;47.918;8.112;2023-02-28T15:00:54;91054.41;;;-1.84;65.38
69909;BME280;57190;47.918;8.112;2023-02-28T15:05:55;91051.16;;;-1.64;64.86
69909;BME280;57190;47.918;8.112;2023-02-28T15:08:21;91051.47;;;-1.52;63.69
69909;BME280;57190;47.918;8.112;2023-02-28T15:13:18;91053.00;;;-1.65;64.73
69909;BME280;57190;47.918;8.112;2023-02-28T15:15:57;91053.44;;;-1.54;65.29
69909;BME280;57190;47.918;8.112;2023-02-28T15:18:53;91054.94;;;-1.45;63.95
69909;BME280;57190;47.918;8.112;2023-02-28T15:21:20;91054.41;;;-1.62;64.81
69909;BME280;57190;47.918;8.112;2023-02-28T15:23:54;91055.22;;;-1.62;64.69
69909;BME280;57190;47.918;8.112;2023-02-28T15:26:26;91057.81;;;-1.62;65.19
69909;BME280;57190;47.918;8.112;2023-02-28T15:29:00;91059.03;;;-1.64;65.24